createdAt,value
2018-12-29T00:01:44.500Z,76.02
2018-12-29T00:04:14.968Z,74.62
2018-12-29T00:06:45.222Z,77.62
2018-12-29T00:09:15.502Z,77.60
2018-12-29T00:11:45.863Z,73.22
2018-12-29T00:14:16.226Z,75.97
2018-12-29T00:16:46.558Z,71.05
2018-12-29T00:19:16.920Z,74.47
2018-12-29T00:21:47.261Z,71.97
2018-12-29T00:24:17.614Z,73.07
2018-12-29T00:26:47.962Z,70.42
2018-12-29T00:29:18.358Z,68.57
2018-12-29T00:31:48.697Z,68.35
2018-12-29T00:34:18.992Z,67.08
2018-12-29T00:36:49.259Z,68.95
2018-12-29T00:39:19.620Z,68.35
2018-12-29T00:41:49.967Z,65.70
2018-12-29T00:44:20.318Z,65.35
2018-12-29T00:46:50.639Z,65.30
2018-12-29T00:53:05.707Z,63.00
2018-12-29T00:55:35.973Z,60.80
2018-12-29T01:01:02.419Z,61.30
2018-12-29T01:03:34.338Z,58.83
2018-12-29T01:06:04.670Z,60.12
2018-12-29T01:08:35.041Z,60.05
2018-12-29T01:11:05.392Z,56.55
2018-12-29T01:13:35.690Z,56.98
2018-12-29T01:16:06.054Z,57.20
2018-12-29T01:18:36.380Z,56.98
2018-12-29T01:21:06.712Z,56.08
2018-12-29T01:23:37.044Z,56.80
2018-12-29T01:26:07.389Z,55.28
2018-12-29T01:28:37.654Z,55.43
2018-12-29T01:31:07.933Z,54.08
2018-12-29T01:33:38.264Z,54.40
2018-12-29T01:36:08.628Z,53.75
2018-12-29T01:38:38.962Z,52.10
2018-12-29T01:41:09.315Z,51.05
2018-12-29T01:46:41.825Z,50.25
2018-12-29T01:49:12.091Z,51.25
2018-12-29T01:51:42.399Z,48.42
2018-12-29T01:54:12.759Z,49.38
2018-12-29T01:56:43.110Z,48.52
2018-12-29T01:59:13.395Z,48.87
2018-12-29T02:01:43.732Z,50.03
2018-12-29T02:04:14.074Z,48.35
2018-12-29T02:06:44.509Z,48.02
2018-12-29T02:09:14.756Z,46.50
2018-12-29T02:11:45.014Z,47.13
2018-12-29T02:14:15.384Z,44.93
2018-12-29T02:17:05.234Z,45.25
2018-12-29T02:22:17.322Z,43.55
2018-12-29T02:24:47.671Z,44.98
2018-12-29T02:27:17.982Z,43.23
2018-12-29T02:29:48.327Z,43.10
2018-12-29T02:32:18.677Z,42.53
2018-12-29T02:34:48.945Z,42.73
2018-12-29T02:43:03.938Z,40.60
2018-12-29T02:45:34.271Z,39.67
2018-12-29T02:48:04.665Z,39.78
2018-12-29T02:50:35.066Z,41.33
2018-12-29T02:53:05.352Z,37.50
2018-12-29T02:55:35.683Z,39.90
2018-12-29T02:58:06.013Z,38.88
2018-12-29T03:00:36.334Z,37.80
2018-12-29T03:03:06.668Z,36.65
2018-12-29T03:05:36.954Z,37.50
2018-12-29T03:08:07.231Z,37.10
2018-12-29T03:10:37.513Z,37.60
2018-12-29T03:13:07.955Z,36.80
2018-12-29T03:15:41.574Z,36.20
2018-12-29T03:18:29.809Z,35.88
2018-12-29T03:21:00.119Z,36.55
2018-12-29T03:23:30.446Z,37.98
2018-12-29T03:26:00.746Z,34.38
2018-12-29T03:28:31.076Z,33.40
2018-12-29T03:31:01.444Z,34.25
2018-12-29T03:33:31.755Z,32.13
2018-12-29T03:36:02.112Z,32.50
2018-12-29T03:38:32.447Z,34.43
2018-12-29T03:41:02.811Z,31.27
2018-12-29T03:43:33.163Z,31.55
2018-12-29T03:46:03.432Z,31.12
2018-12-29T03:48:33.702Z,31.82
2018-12-29T03:51:04.021Z,32.33
2018-12-29T03:53:34.340Z,30.97
2018-12-29T03:59:49.429Z,29.57
2018-12-29T04:02:19.763Z,29.27
2018-12-29T04:04:50.066Z,30.40
2018-12-29T04:07:20.424Z,29.35
2018-12-29T04:09:50.785Z,29.18
2018-12-29T04:12:23.937Z,29.18
2018-12-29T04:14:54.293Z,28.32
2018-12-29T04:17:24.539Z,27.87
2018-12-29T04:28:41.960Z,27.87
2018-12-29T04:31:12.294Z,27.02
2018-12-29T04:33:42.645Z,28.27
2018-12-29T04:36:12.912Z,27.35
2018-12-29T04:38:43.223Z,26.23
2018-12-29T04:41:13.479Z,26.20
2018-12-29T04:43:43.830Z,25.88
2018-12-29T04:46:14.175Z,26.42
2018-12-29T04:51:39.658Z,25.37
2018-12-29T04:54:09.999Z,25.27
2018-12-29T04:56:40.388Z,23.45
2018-12-29T04:59:10.610Z,24.82
2018-12-29T05:01:40.981Z,23.80
2018-12-29T05:04:11.305Z,23.80
2018-12-29T05:06:41.583Z,23.83
2018-12-29T05:09:11.921Z,23.20
2018-12-29T05:11:42.256Z,22.82
2018-12-29T05:14:12.590Z,23.35
2018-12-29T05:16:42.972Z,22.87
2018-12-29T05:19:13.303Z,22.48
2018-12-29T05:21:43.653Z,22.30
2018-12-29T05:24:13.999Z,21.77
2018-12-29T05:26:44.386Z,21.57
2018-12-29T05:29:14.665Z,21.17
2018-12-29T05:31:44.987Z,21.82
2018-12-29T05:34:15.272Z,22.02
2018-12-29T05:36:45.610Z,19.77
2018-12-29T05:39:15.903Z,20.32
2018-12-29T05:41:46.204Z,21.35
2018-12-29T05:47:11.530Z,20.97
2018-12-29T05:49:42.015Z,21.27
2018-12-29T05:52:12.388Z,23.38
2018-12-29T05:54:42.730Z,62.15
2018-12-29T05:57:13.053Z,56.20
2018-12-29T05:59:43.410Z,49.30
2018-12-29T06:02:13.807Z,42.75
2018-12-29T06:04:44.122Z,41.65
2018-12-29T06:09:56.971Z,36.40
2018-12-29T06:12:27.259Z,36.23
2018-12-29T06:14:57.586Z,43.52
2018-12-29T06:17:27.945Z,40.75
2018-12-29T06:19:58.273Z,45.00
2018-12-29T06:22:28.563Z,59.35
2018-12-29T06:24:58.875Z,84.77
2018-12-29T06:27:29.218Z,78.30
2018-12-29T06:29:59.512Z,62.85
2018-12-29T06:32:29.797Z,53.68
2018-12-29T06:35:00.254Z,59.73
2018-12-29T06:37:30.570Z,55.80
2018-12-29T06:45:58.377Z,56.02
2018-12-29T06:48:28.711Z,54.00
2018-12-29T06:51:00.604Z,55.35
2018-12-29T06:53:30.942Z,55.73
2018-12-29T06:56:01.348Z,57.15
2018-12-29T06:58:31.747Z,67.80
2018-12-29T07:01:02.133Z,53.70
2018-12-29T07:03:32.454Z,54.20
2018-12-29T07:06:02.759Z,54.00
2018-12-29T07:08:33.158Z,52.67
2018-12-29T07:11:03.486Z,53.73
2018-12-29T07:13:33.781Z,51.35
2018-12-29T07:16:04.037Z,53.28
2018-12-29T07:18:34.409Z,53.42
2018-12-29T07:21:16.652Z,52.15
2018-12-29T07:23:46.948Z,52.67
2018-12-29T07:26:17.280Z,53.10
2018-12-29T07:28:47.646Z,52.05
2018-12-29T07:31:17.898Z,50.45
2018-12-29T07:33:48.239Z,49.20
2018-12-29T07:36:18.601Z,52.33
2018-12-29T07:38:48.932Z,49.65
2018-12-29T07:41:19.292Z,49.83
2018-12-29T07:43:49.617Z,48.42
2018-12-29T07:46:19.901Z,48.83
2018-12-29T07:48:50.167Z,48.08
2018-12-29T07:51:20.464Z,48.15
2018-12-29T07:53:50.820Z,47.80
2018-12-29T07:56:21.084Z,46.20
2018-12-29T07:58:51.372Z,47.67
2018-12-29T08:01:21.697Z,47.38
2018-12-29T08:03:52.027Z,44.45
2018-12-29T08:06:22.283Z,43.65
2018-12-29T08:08:52.741Z,44.30
2018-12-29T08:11:23.076Z,43.40
2018-12-29T08:13:53.462Z,43.10
2018-12-29T08:16:35.767Z,42.78
2018-12-29T08:19:06.059Z,41.68
2018-12-29T08:21:36.389Z,41.75
2018-12-29T08:24:06.694Z,41.45
2018-12-29T08:26:37.065Z,41.13
2018-12-29T08:29:07.368Z,40.83
2018-12-29T08:31:37.638Z,38.60
2018-12-29T08:34:07.987Z,38.40
2018-12-29T08:36:38.366Z,39.48
2018-12-29T08:39:08.708Z,38.55
2018-12-29T08:41:39.105Z,36.42
2018-12-29T08:44:09.452Z,35.73
2018-12-29T08:46:39.801Z,35.10
2018-12-29T08:49:10.135Z,37.00
2018-12-29T08:51:40.398Z,36.83
2018-12-29T08:54:10.744Z,35.25
2018-12-29T08:56:41.080Z,35.98
2018-12-29T08:59:11.360Z,34.48
2018-12-29T09:01:41.619Z,34.67
2018-12-29T09:04:11.987Z,33.90
2018-12-29T09:06:42.343Z,33.63
2018-12-29T09:09:12.634Z,31.73
2018-12-29T09:11:42.992Z,34.05
2018-12-29T09:14:13.247Z,31.60
2018-12-29T09:16:43.528Z,32.90
2018-12-29T09:19:13.897Z,31.68
2018-12-29T09:21:44.184Z,30.08
2018-12-29T09:24:14.515Z,31.68
2018-12-29T09:26:46.415Z,30.43
2018-12-29T09:29:16.692Z,30.08
2018-12-29T09:31:47.063Z,29.98
2018-12-29T09:34:22.386Z,30.52
2018-12-29T09:37:34.676Z,29.25
2018-12-29T09:40:05.068Z,29.12
2018-12-29T09:42:35.364Z,28.87
2018-12-29T09:45:05.915Z,28.12
2018-12-29T09:47:36.280Z,26.42
2018-12-29T09:50:06.916Z,27.37
2018-12-29T09:52:37.276Z,28.05
2018-12-29T10:13:10.082Z,25.43
2018-12-29T10:15:40.443Z,23.95
2018-12-29T10:18:10.708Z,24.63
2018-12-29T10:20:41.122Z,25.08
2018-12-29T10:23:11.464Z,23.85
2018-12-29T10:25:41.747Z,23.57
2018-12-29T10:28:12.818Z,24.02
2018-12-29T10:36:50.708Z,22.70
2018-12-29T10:39:21.161Z,22.85
2018-12-29T10:41:51.420Z,21.60
2018-12-29T10:44:40.644Z,22.42
2018-12-29T10:47:11.013Z,21.90
2018-12-29T10:49:41.304Z,22.25
2018-12-29T10:52:11.670Z,21.50
2018-12-29T10:54:42.125Z,21.05
2018-12-29T10:57:12.460Z,20.82
2018-12-29T10:59:42.851Z,21.15
2018-12-29T11:02:13.178Z,20.52
2018-12-29T11:04:43.460Z,21.25
2018-12-29T11:07:13.787Z,20.27
2018-12-29T11:09:44.129Z,20.85
2018-12-29T11:12:14.387Z,19.70
2018-12-29T11:14:44.715Z,20.27
2018-12-29T11:17:15.203Z,19.73
2018-12-29T11:19:45.463Z,20.60
2018-12-29T11:22:17.340Z,20.05
2018-12-29T11:24:47.697Z,19.77
2018-12-29T11:27:17.982Z,18.92
2018-12-29T11:29:48.238Z,18.92
2018-12-29T11:32:18.610Z,18.57
2018-12-29T11:34:48.903Z,18.90
2018-12-29T11:37:19.230Z,18.02
2018-12-29T11:39:49.586Z,18.70
2018-12-29T11:42:19.857Z,17.92
2018-12-29T11:44:50.219Z,17.20
2018-12-29T11:47:20.563Z,17.95
2018-12-29T11:49:50.908Z,17.82
2018-12-29T11:52:21.247Z,17.60
2018-12-29T11:54:51.621Z,18.35
2018-12-29T11:57:21.955Z,16.60
2018-12-29T11:59:52.287Z,16.40
2018-12-29T12:05:17.284Z,16.20
2018-12-29T12:07:47.569Z,16.97
2018-12-29T12:10:17.834Z,16.97
2018-12-29T12:12:48.195Z,17.62
2018-12-29T12:15:18.578Z,16.95
2018-12-29T12:17:48.896Z,17.27
2018-12-29T12:20:19.223Z,15.70
2018-12-29T12:22:49.509Z,16.48
2018-12-29T12:25:19.793Z,15.50
2018-12-29T12:28:10.888Z,15.72
2018-12-29T12:30:41.160Z,15.32
2018-12-29T12:33:18.538Z,15.48
2018-12-29T12:35:48.810Z,15.25
2018-12-29T12:38:19.315Z,14.55
2018-12-29T12:40:49.657Z,15.05
2018-12-29T12:46:43.103Z,14.25
2018-12-29T12:49:53.010Z,15.20
2018-12-29T12:52:43.897Z,13.93
2018-12-29T12:55:14.186Z,14.58
2018-12-29T12:57:44.538Z,13.98
2018-12-29T13:03:19.188Z,13.58
2018-12-29T13:08:53.469Z,13.50
2018-12-29T13:14:27.751Z,13.45
2018-12-29T13:16:58.093Z,13.03
2018-12-29T13:19:28.764Z,14.10
2018-12-29T13:22:19.445Z,12.82
2018-12-29T13:24:49.826Z,12.35
2018-12-29T13:27:20.188Z,12.70
2018-12-29T13:29:50.458Z,12.13
2018-12-29T13:32:20.740Z,12.37
2018-12-29T13:34:51.068Z,12.58
2018-12-29T13:37:42.159Z,11.78
2018-12-29T13:40:12.516Z,12.63
2018-12-29T13:42:42.954Z,12.55
2018-12-29T13:48:46.602Z,12.18
2018-12-29T13:51:16.941Z,11.83
2018-12-29T13:53:47.239Z,12.10
2018-12-29T13:56:17.566Z,11.93
2018-12-29T13:58:47.869Z,12.23
2018-12-29T14:01:18.251Z,12.15
2018-12-29T14:03:48.617Z,11.48
2018-12-29T14:06:18.946Z,12.15
2018-12-29T14:09:10.258Z,11.03
2018-12-29T14:11:40.646Z,10.80
2018-12-29T14:14:12.552Z,11.50
2018-12-29T14:16:49.751Z,12.15
2018-12-29T14:19:20.112Z,11.43
2018-12-29T14:21:50.489Z,11.48
2018-12-29T14:24:20.843Z,11.25
2018-12-29T14:26:51.323Z,11.45
2018-12-29T14:29:21.655Z,11.57
2018-12-29T14:31:52.048Z,11.00
2018-12-29T14:34:22.407Z,11.50
2018-12-29T14:36:52.709Z,10.60
2018-12-29T14:39:23.071Z,10.43
2018-12-29T14:41:53.362Z,10.98
2018-12-29T14:44:23.974Z,10.90
2018-12-29T14:46:54.324Z,10.95
2018-12-29T14:49:24.660Z,10.80
2018-12-29T14:51:54.938Z,9.93
2018-12-29T14:54:25.293Z,10.48
2018-12-29T14:56:55.625Z,10.80
2018-12-29T14:59:46.730Z,10.55
2018-12-29T15:02:17.095Z,10.50
2018-12-29T15:04:47.452Z,9.95
2018-12-29T15:07:18.083Z,9.53
2018-12-29T15:09:48.423Z,10.00
2018-12-29T15:12:18.783Z,10.13
2018-12-29T15:14:49.111Z,9.93
2018-12-29T15:17:38.518Z,10.03
2018-12-29T15:20:09.292Z,9.20
2018-12-29T15:22:39.723Z,9.60
2018-12-29T15:25:10.056Z,9.68
2018-12-29T15:27:47.477Z,9.73
2018-12-29T15:30:36.870Z,9.30
2018-12-29T15:33:07.163Z,9.75
2018-12-29T15:35:37.504Z,9.60
2018-12-29T15:38:14.671Z,9.08
2018-12-29T15:40:45.006Z,9.50
2018-12-29T15:43:15.741Z,9.75
2018-12-29T15:45:46.114Z,9.48
2018-12-29T15:48:35.524Z,9.00
2018-12-29T15:51:06.132Z,9.75
2018-12-29T15:56:25.720Z,9.08
2018-12-29T15:58:56.049Z,8.90
2018-12-29T16:02:12.774Z,9.20
2018-12-29T16:04:43.051Z,9.33
2018-12-29T16:07:13.421Z,9.60
2018-12-29T16:09:43.862Z,9.28
2018-12-29T16:12:21.354Z,8.95
2018-12-29T16:14:51.677Z,9.10
2018-12-29T16:17:22.059Z,10.58
2018-12-29T16:19:52.583Z,10.08
2018-12-29T16:22:22.986Z,200.30
2018-12-29T16:24:53.323Z,40.33
2018-12-29T16:27:23.708Z,29.15
2018-12-29T16:29:55.604Z,30.90
2018-12-29T16:32:45.041Z,28.40
2018-12-29T16:35:16.375Z,24.15
2018-12-29T16:37:46.693Z,22.60
2018-12-29T16:40:17.038Z,18.67
2018-12-29T16:42:47.870Z,19.50
2018-12-29T16:45:38.864Z,19.77
2018-12-29T16:48:16.599Z,18.37
2018-12-29T16:50:46.894Z,17.90
2018-12-29T16:53:17.309Z,16.37
2018-12-29T16:55:47.662Z,18.17
2018-12-29T16:58:18.011Z,17.32
2018-12-29T17:07:00.778Z,24.52
2018-12-29T17:09:31.147Z,22.58
2018-12-29T17:12:01.406Z,21.33
2018-12-29T17:14:33.238Z,20.40
2018-12-29T17:17:22.876Z,20.08
2018-12-29T17:19:53.655Z,20.00
2018-12-29T17:22:23.960Z,19.25
2018-12-29T17:24:54.346Z,19.55
2018-12-29T17:27:24.691Z,19.77
2018-12-29T17:30:02.120Z,18.75
2018-12-29T17:32:32.450Z,18.25
2018-12-29T17:35:02.796Z,18.17
2018-12-29T17:37:33.138Z,17.85
2018-12-29T17:40:03.475Z,18.15
2018-12-29T17:42:54.555Z,18.23
2018-12-29T17:45:24.893Z,17.65
2018-12-29T17:47:55.332Z,17.42
2018-12-29T17:57:01.233Z,16.52
2018-12-29T17:59:31.602Z,17.15
2018-12-29T18:02:01.957Z,16.90
2018-12-29T18:05:32.637Z,16.85
2018-12-29T18:13:54.713Z,15.35
2018-12-29T18:17:11.639Z,15.88
2018-12-29T18:19:41.995Z,16.10
2018-12-29T18:22:12.553Z,15.85
2018-12-29T18:24:42.909Z,15.08
2018-12-29T18:27:13.202Z,15.80
2018-12-29T18:29:43.496Z,15.23
2018-12-29T18:32:13.853Z,15.43
2018-12-29T18:34:44.458Z,14.93
2018-12-29T18:38:01.046Z,15.78
2018-12-29T18:40:31.392Z,13.20
2018-12-29T18:43:01.757Z,15.48
2018-12-29T18:45:32.268Z,14.95
2018-12-29T18:48:02.627Z,14.55
2018-12-29T18:50:32.975Z,14.40
2018-12-29T18:53:03.272Z,14.80
2018-12-29T18:55:33.548Z,14.33
2018-12-29T18:58:15.369Z,14.80
2018-12-29T19:00:47.729Z,15.20
2018-12-29T19:03:18.275Z,14.80
2018-12-29T19:05:48.615Z,14.73
2018-12-29T19:08:19.007Z,14.85
2018-12-29T19:10:49.344Z,14.33
2018-12-29T19:14:06.567Z,14.65
2018-12-29T19:22:33.791Z,15.43
2018-12-29T19:25:04.265Z,14.65
2018-12-29T19:27:34.609Z,15.32
2018-12-29T19:30:05.413Z,15.08
2018-12-29T19:32:42.776Z,14.43
2018-12-29T19:38:22.822Z,15.00
2018-12-29T19:40:54.299Z,15.65
2018-12-29T19:43:31.797Z,15.72
2018-12-29T19:46:04.663Z,15.55
2018-12-29T19:48:35.002Z,14.83
2018-12-29T19:51:05.397Z,15.50
2018-12-29T19:53:48.647Z,15.10
2018-12-29T19:56:18.992Z,16.15
2018-12-29T19:58:49.351Z,14.73
2018-12-29T20:01:19.816Z,15.53
2018-12-29T20:03:50.170Z,15.48
2018-12-29T20:06:20.512Z,15.55
2018-12-29T20:08:50.882Z,14.90
2018-12-29T20:11:40.292Z,14.90
2018-12-29T20:14:10.691Z,15.35
2018-12-29T20:16:41.072Z,15.60
2018-12-29T20:19:11.472Z,15.10
2018-12-29T20:21:41.815Z,16.42
2018-12-29T20:24:12.283Z,14.95
2018-12-29T20:29:52.881Z,15.40
2018-12-29T20:32:23.260Z,15.88
2018-12-29T20:34:53.616Z,15.60
2018-12-29T20:37:23.944Z,15.83
2018-12-29T20:39:54.376Z,15.45
2018-12-29T20:42:24.745Z,15.28
2018-12-29T20:44:55.089Z,16.65
2018-12-29T20:47:25.485Z,16.12
2018-12-29T20:49:55.746Z,15.58
2018-12-29T20:52:26.104Z,15.80
2018-12-29T20:55:03.819Z,26.20
2018-12-29T20:57:34.191Z,40.67
2018-12-29T21:00:06.940Z,38.88
2018-12-29T21:02:37.307Z,40.28
2018-12-29T21:05:07.643Z,38.65
2018-12-29T21:07:56.850Z,36.38
2018-12-29T21:10:27.190Z,38.45
2018-12-29T21:12:57.526Z,37.15
2018-12-29T21:18:36.768Z,36.08
2018-12-29T21:21:14.312Z,35.03
2018-12-29T21:23:44.681Z,32.35
2018-12-29T21:26:15.046Z,33.02
2018-12-29T21:28:45.321Z,32.88
2018-12-29T21:31:34.703Z,32.30
2018-12-29T21:34:04.996Z,33.45
2018-12-29T21:36:35.357Z,31.45
2018-12-29T21:39:07.283Z,31.27
2018-12-29T21:41:37.815Z,30.72
2018-12-29T21:44:08.139Z,30.35
2018-12-29T21:46:38.504Z,31.05
2018-12-29T21:49:08.841Z,29.50
2018-12-29T21:51:39.179Z,29.63
2018-12-29T21:54:09.567Z,29.98
2018-12-29T21:56:39.892Z,30.30
2018-12-29T21:59:10.237Z,29.02
2018-12-29T22:01:40.575Z,29.05
2018-12-29T22:04:10.928Z,29.18
2018-12-29T22:06:41.181Z,27.62
2018-12-29T22:09:11.550Z,30.25
2018-12-29T22:11:41.880Z,41.42
2018-12-29T22:14:12.176Z,51.13
2018-12-29T22:16:42.524Z,42.95
2018-12-29T22:19:12.817Z,39.35
2018-12-29T22:21:43.147Z,38.33
2018-12-29T22:24:13.587Z,37.95
2018-12-29T22:26:43.951Z,37.58
2018-12-29T22:29:14.575Z,37.48
2018-12-29T22:31:44.927Z,35.10
2018-12-29T22:34:15.200Z,36.95
2018-12-29T22:36:45.567Z,37.45
2018-12-29T22:42:43.388Z,37.03
2018-12-29T22:45:13.752Z,37.33
2018-12-29T22:47:44.169Z,38.10
2018-12-29T22:50:14.422Z,37.28
2018-12-29T22:52:44.938Z,38.30
2018-12-29T22:55:15.523Z,36.85
2018-12-29T22:57:46.219Z,43.85
2018-12-29T23:00:35.530Z,43.70
2018-12-29T23:03:05.805Z,46.85
2018-12-29T23:05:36.156Z,54.60
2018-12-29T23:11:03.053Z,50.70
2018-12-29T23:13:33.321Z,50.08
2018-12-29T23:16:03.713Z,51.28
2018-12-29T23:18:34.042Z,51.75
2018-12-29T23:21:04.375Z,50.10
2018-12-29T23:23:34.711Z,54.10
2018-12-29T23:26:05.094Z,52.10
2018-12-29T23:28:35.436Z,52.13
2018-12-29T23:31:26.530Z,52.93
2018-12-29T23:33:56.862Z,52.23
2018-12-29T23:42:16.097Z,52.00
2018-12-29T23:44:46.433Z,51.55
2018-12-29T23:47:16.804Z,52.90
2018-12-29T23:49:47.155Z,52.00
2018-12-29T23:55:20.344Z,51.65
2018-12-29T23:57:50.722Z,50.80
